Time;durP1;ratioP1;P1;durP2;ratioP2;P2;SDS_P1;SDS_P2;PMS_P1;PMS_P2;Temp;Humidity;BMP_temperature;BMP_pressure;BME280_temperature;BME280_humidity;BME280_pressure;Samples;Min_cycle;Max_cycle;Signal;HPM_P1;HPM_P2
2020/12/29 00:01:49;;;;;;;5.07;2.20;;;;;;;;;;5089838;28;20186;-77
2020/12/29 00:04:16;;;;;;;2.50;2.20;;;;;;;;;;5088405;28;20273;-75
2020/12/29 00:06:45;;;;;;;3.05;2.50;;;;;;;;;;5092059;28;20279;-75
2020/12/29 00:09:13;;;;;;;3.55;2.78;;;;;;;;;;5092836;28;20250;-77
2020/12/29 00:11:39;;;;;;;3.00;2.42;;;;;;;;;;5073078;28;20286;-76
2020/12/29 00:14:06;;;;;;;4.80;2.78;;;;;;;;;;5059046;28;20313;-75
2020/12/29 00:16:33;;;;;;;3.22;2.80;;;;;;;;;;5055344;28;20195;-76
2020/12/29 00:19:00;;;;;;;4.10;2.90;;;;;;;;;;5055580;28;20191;-75
2020/12/29 00:21:27;;;;;;;2.95;2.45;;;;;;;;;;5055829;28;20199;-78
2020/12/29 00:23:54;;;;;;;2.22;2.03;;;;;;;;;;5061250;28;20225;-77
2020/12/29 00:26:25;;;;;;;4.18;2.60;;;;;;;;;;5068681;28;20279;-76
2020/12/29 00:28:53;;;;;;;3.70;2.72;;;;;;;;;;5072532;28;20195;-78
2020/12/29 00:31:20;;;;;;;9.90;2.75;;;;;;;;;;5066118;28;20191;-76
2020/12/29 00:33:47;;;;;;;2.75;2.50;;;;;;;;;;5052849;28;20222;-76
2020/12/29 00:36:14;;;;;;;3.83;2.30;;;;;;;;;;5053314;28;20231;-76
2020/12/29 00:38:41;;;;;;;3.40;2.65;;;;;;;;;;5054252;28;20198;-77
2020/12/29 00:41:09;;;;;;;4.63;2.95;;;;;;;;;;5054716;28;20251;-75
2020/12/29 00:43:36;;;;;;;2.85;2.20;;;;;;;;;;5074096;28;20232;-77
2020/12/29 00:46:05;;;;;;;5.47;2.97;;;;;;;;;;5072376;28;20255;-77
2020/12/29 00:48:32;;;;;;;2.90;2.60;;;;;;;;;;5068485;28;20202;-77
2020/12/29 00:51:01;;;;;;;4.82;2.67;;;;;;;;;;5071259;28;20195;-76
2020/12/29 00:53:29;;;;;;;5.45;3.13;;;;;;;;;;5071327;28;20216;-76
2020/12/29 00:55:56;;;;;;;3.35;2.75;;;;;;;;;;5072298;28;20222;-79
2020/12/29 00:58:23;;;;;;;3.00;2.70;;;;;;;;;;5072395;28;20237;-76
2020/12/29 01:00:50;;;;;;;4.32;2.90;;;;;;;;;;5075299;28;20558;-76
2020/12/29 01:03:17;;;;;;;2.92;2.20;;;;;;;;;;5065541;28;20753;-77
2020/12/29 01:05:44;;;;;;;7.97;2.65;;;;;;;;;;5053638;28;20198;-77
2020/12/29 01:08:11;;;;;;;3.85;3.05;;;;;;;;;;5055204;28;20714;-76
2020/12/29 01:10:38;;;;;;;5.95;2.95;;;;;;;;;;5068076;28;20179;-76
2020/12/29 01:13:05;;;;;;;2.85;2.55;;;;;;;;;;5069009;28;20237;-77
2020/12/29 01:15:33;;;;;;;3.45;2.10;;;;;;;;;;5071992;28;20586;-77
2020/12/29 01:18:00;;;;;;;4.60;3.00;;;;;;;;;;5071757;28;20506;-78
2020/12/29 01:20:27;;;;;;;4.13;2.80;;;;;;;;;;5071920;28;20237;-77
2020/12/29 01:22:54;;;;;;;5.80;2.95;;;;;;;;;;5054564;28;20281;-77
2020/12/29 01:25:21;;;;;;;4.43;2.97;;;;;;;;;;5072140;28;20203;-76
2020/12/29 01:27:48;;;;;;;3.38;2.25;;;;;;;;;;5072111;28;20587;-76
2020/12/29 01:30:15;;;;;;;5.10;2.70;;;;;;;;;;5072215;28;20205;-77
2020/12/29 01:32:43;;;;;;;3.30;2.83;;;;;;;;;;5068035;28;20282;-76
2020/12/29 01:35:10;;;;;;;3.88;2.75;;;;;;;;;;5067862;28;21551;-77
2020/12/29 01:37:37;;;;;;;2.60;2.38;;;;;;;;;;5071698;28;20206;-78
2020/12/29 01:40:04;;;;;;;5.25;2.78;;;;;;;;;;5071050;28;20209;-77
2020/12/29 01:42:31;;;;;;;3.00;2.70;;;;;;;;;;5071598;28;20223;-77
2020/12/29 01:44:58;;;;;;;3.40;2.15;;;;;;;;;;5059566;28;20252;-77
2020/12/29 01:47:26;;;;;;;2.72;2.42;;;;;;;;;;5052770;28;20575;-76
2020/12/29 01:49:53;;;;;;;2.30;2.10;;;;;;;;;;5051907;28;20197;-76
2020/12/29 01:52:20;;;;;;;2.42;2.10;;;;;;;;;;5053139;28;20201;-78
2020/12/29 01:54:48;;;;;;;2.65;2.15;;;;;;;;;;5061891;28;20223;-76
2020/12/29 01:57:15;;;;;;;3.10;2.30;;;;;;;;;;5067995;28;20615;-77
2020/12/29 01:59:43;;;;;;;5.72;2.70;;;;;;;;;;5070696;28;20696;-75
2020/12/29 02:02:09;;;;;;;3.10;2.33;;;;;;;;;;5070560;28;20254;-77
2020/12/29 02:04:37;;;;;;;3.13;2.40;;;;;;;;;;5070286;28;20241;-78
2020/12/29 02:07:05;;;;;;;3.33;2.58;;;;;;;;;;5059661;28;20235;-76
2020/12/29 02:09:32;;;;;;;5.18;2.47;;;;;;;;;;5052857;28;20218;-76
2020/12/29 02:11:59;;;;;;;3.47;2.97;;;;;;;;;;5052553;28;20202;-76
2020/12/29 02:14:26;;;;;;;4.03;2.50;;;;;;;;;;5052455;28;20226;-76
2020/12/29 02:16:53;;;;;;;3.25;2.15;;;;;;;;;;5060381;28;20259;-77
2020/12/29 02:19:20;;;;;;;5.35;2.55;;;;;;;;;;5066961;28;20201;-77
2020/12/29 02:21:51;;;;;;;2.28;2.00;;;;;;;;;;5070280;28;20223;-76
2020/12/29 02:24:19;;;;;;;4.43;2.95;;;;;;;;;;5069990;28;20639;-77
2020/12/29 02:26:46;;;;;;;4.15;3.00;;;;;;;;;;5068082;28;20566;-78
2020/12/29 02:29:12;;;;;;;4.00;2.47;;;;;;;;;;5070233;28;20204;-75
2020/12/29 02:31:39;;;;;;;3.05;2.13;;;;;;;;;;5072248;28;20268;-78
2020/12/29 02:34:06;;;;;;;3.13;2.30;;;;;;;;;;5072119;28;20218;-76
2020/12/29 02:36:33;;;;;;;3.60;2.50;;;;;;;;;;5071912;28;20288;-77
2020/12/29 02:39:00;;;;;;;3.90;2.20;;;;;;;;;;5068393;28;20189;-76
2020/12/29 02:41:27;;;;;;;3.35;2.53;;;;;;;;;;5066357;28;20561;-76
2020/12/29 02:43:54;;;;;;;4.70;2.38;;;;;;;;;;5068902;28;20664;-75
2020/12/29 02:46:21;;;;;;;2.72;2.53;;;;;;;;;;5069855;28;20313;-77
2020/12/29 02:48:48;;;;;;;3.03;2.47;;;;;;;;;;5069239;28;20187;-78
2020/12/29 02:51:15;;;;;;;3.78;2.72;;;;;;;;;;5065746;28;20207;-77
2020/12/29 02:53:41;;;;;;;3.75;2.55;;;;;;;;;;5051461;28;20334;-77
2020/12/29 02:56:08;;;;;;;5.43;2.38;;;;;;;;;;5051596;28;20195;-77
2020/12/29 02:58:36;;;;;;;8.20;2.58;;;;;;;;;;5051912;28;20608;-76
2020/12/29 03:01:02;;;;;;;3.63;2.65;;;;;;;;;;5053342;28;20195;-77
2020/12/29 03:03:29;;;;;;;3.15;2.45;;;;;;;;;;5066136;28;20611;-77
2020/12/29 03:05:56;;;;;;;2.72;2.17;;;;;;;;;;5068092;28;20228;-77
2020/12/29 03:08:23;;;;;;;2.28;1.88;;;;;;;;;;5069368;28;20195;-76
2020/12/29 03:10:49;;;;;;;3.10;2.30;;;;;;;;;;5069589;28;20197;-78
2020/12/29 03:13:16;;;;;;;3.55;2.25;;;;;;;;;;5069980;28;20224;-76
2020/12/29 03:15:44;;;;;;;3.60;2.50;;;;;;;;;;5051467;28;20647;-77
2020/12/29 03:18:10;;;;;;;3.20;2.45;;;;;;;;;;5051435;28;20289;-78
2020/12/29 03:20:37;;;;;;;2.90;1.92;;;;;;;;;;5052808;28;20191;-77
2020/12/29 03:23:04;;;;;;;2.83;2.42;;;;;;;;;;5051091;28;20305;-77
2020/12/29 03:25:31;;;;;;;3.03;2.42;;;;;;;;;;5064179;28;20205;-76
2020/12/29 03:27:58;;;;;;;4.28;2.75;;;;;;;;;;5065926;28;20252;-77
2020/12/29 03:30:24;;;;;;;2.92;2.40;;;;;;;;;;5069485;28;20225;-77
2020/12/29 03:32:52;;;;;;;3.40;2.60;;;;;;;;;;5069485;28;20319;-78
2020/12/29 03:35:19;;;;;;;3.92;2.40;;;;;;;;;;5069724;28;20289;-76
2020/12/29 03:37:46;;;;;;;2.90;2.60;;;;;;;;;;5054981;28;20257;-76
2020/12/29 03:40:13;;;;;;;4.13;2.90;;;;;;;;;;5059174;28;20186;-78
2020/12/29 03:42:40;;;;;;;4.45;2.58;;;;;;;;;;5071277;28;20190;-76
2020/12/29 03:45:06;;;;;;;2.60;2.40;;;;;;;;;;5071459;28;20203;-77
2020/12/29 03:47:33;;;;;;;4.35;2.80;;;;;;;;;;5067419;28;20221;-76
2020/12/29 03:50:01;;;;;;;3.17;2.17;;;;;;;;;;5065315;28;20237;-76
2020/12/29 03:52:28;;;;;;;5.80;2.75;;;;;;;;;;5069270;28;20205;-76
2020/12/29 03:54:54;;;;;;;4.65;2.10;;;;;;;;;;5068871;28;21038;-76
2020/12/29 03:57:21;;;;;;;2.88;2.53;;;;;;;;;;5069415;28;20198;-77
2020/12/29 03:59:48;;;;;;;4.72;2.58;;;;;;;;;;5069492;28;20289;-76
2020/12/29 04:02:15;;;;;;;4.90;3.63;;;;;;;;;;5052143;28;20195;-76
2020/12/29 04:04:42;;;;;;;3.15;2.30;;;;;;;;;;5050874;28;20272;-77
2020/12/29 04:07:09;;;;;;;3.03;2.45;;;;;;;;;;5050676;28;20276;-76
2020/12/29 04:09:36;;;;;;;3.28;2.50;;;;;;;;;;5058511;28;20216;-76
2020/12/29 04:12:03;;;;;;;4.25;2.92;;;;;;;;;;5064671;28;20194;-76
2020/12/29 04:14:29;;;;;;;2.67;2.40;;;;;;;;;;5068243;28;20203;-77
2020/12/29 04:16:56;;;;;;;5.60;2.58;;;;;;;;;;5068445;28;20790;-77
2020/12/29 04:19:23;;;;;;;4.63;3.63;;;;;;;;;;5068952;28;20267;-78
2020/12/29 04:21:50;;;;;;;3.42;2.78;;;;;;;;;;5063712;28;20558;-77
2020/12/29 04:24:17;;;;;;;3.38;2.53;;;;;;;;;;5065139;28;20672;-76
2020/12/29 04:26:44;;;;;;;3.28;2.65;;;;;;;;;;5067023;28;20709;-76
2020/12/29 04:29:11;;;;;;;3.55;2.55;;;;;;;;;;5069063;28;20658;-77
2020/12/29 04:31:38;;;;;;;4.82;3.15;;;;;;;;;;5067089;28;20203;-77
2020/12/29 04:34:05;;;;;;;5.68;2.83;;;;;;;;;;5048718;28;20211;-76
2020/12/29 04:36:31;;;;;;;2.80;2.50;;;;;;;;;;5050713;28;20192;-77
2020/12/29 04:38:58;;;;;;;4.75;3.08;;;;;;;;;;5050879;28;20196;-77
2020/12/29 04:41:26;;;;;;;3.53;3.22;;;;;;;;;;5054557;28;20201;-77
2020/12/29 04:43:55;;;;;;;4.50;3.00;;;;;;;;;;5071952;28;20752;-77
2020/12/29 04:46:22;;;;;;;2.88;2.63;;;;;;;;;;5068578;28;20579;-76
2020/12/29 04:48:49;;;;;;;3.42;2.53;;;;;;;;;;5069829;28;20577;-77
2020/12/29 04:51:16;;;;;;;3.10;2.78;;;;;;;;;;5072626;28;20293;-77
2020/12/29 04:53:56;;;;;;;6.22;3.50;;;;;;;;;;5059960;28;20217;-76
2020/12/29 04:56:25;;;;;;;6.40;2.83;;;;;;;;;;5052342;28;20195;-78
2020/12/29 04:58:53;;;;;;;4.75;2.85;;;;;;;;;;5053444;28;20340;-76
2020/12/29 05:01:22;;;;;;;3.35;2.60;;;;;;;;;;5052554;28;20285;-76
2020/12/29 05:03:50;;;;;;;4.45;3.25;;;;;;;;;;5063710;28;20214;-76
2020/12/29 05:06:17;;;;;;;5.00;3.65;;;;;;;;;;5073793;28;20233;-77
2020/12/29 05:08:44;;;;;;;5.05;2.80;;;;;;;;;;5067362;28;20199;-77
2020/12/29 05:11:11;;;;;;;5.68;3.42;;;;;;;;;;5069136;28;20190;-76
2020/12/29 05:13:38;;;;;;;7.05;3.60;;;;;;;;;;5072016;28;20206;-77
2020/12/29 05:16:05;;;;;;;5.78;3.70;;;;;;;;;;5071812;28;20248;-77
2020/12/29 05:18:32;;;;;;;4.20;3.25;;;;;;;;;;5072093;28;20289;-77
2020/12/29 05:20:59;;;;;;;4.65;3.67;;;;;;;;;;5057050;28;20206;-77
2020/12/29 05:23:26;;;;;;;4.13;3.65;;;;;;;;;;5053476;28;20229;-77
2020/12/29 05:25:54;;;;;;;4.60;3.35;;;;;;;;;;5053526;28;20195;-78
2020/12/29 05:28:20;;;;;;;4.38;3.67;;;;;;;;;;5052156;28;20206;-77
2020/12/29 05:30:53;;;;;;;6.22;3.80;;;;;;;;;;5061965;28;20276;-77
2020/12/29 05:33:21;;;;;;;4.50;3.92;;;;;;;;;;5068423;28;20296;-77
2020/12/29 05:35:48;;;;;;;4.53;3.42;;;;;;;;;;5071398;28;20331;-76
2020/12/29 05:38:15;;;;;;;5.13;3.95;;;;;;;;;;5071723;28;20201;-77
2020/12/29 05:40:42;;;;;;;4.40;4.00;;;;;;;;;;5070525;28;20282;-77
2020/12/29 05:43:09;;;;;;;4.22;3.65;;;;;;;;;;5071747;28;20219;-76
2020/12/29 05:45:36;;;;;;;4.53;3.70;;;;;;;;;;5073169;28;20198;-77
2020/12/29 05:48:03;;;;;;;4.10;3.70;;;;;;;;;;5073007;28;20636;-77
2020/12/29 05:50:31;;;;;;;4.38;3.22;;;;;;;;;;5069666;28;20209;-76
2020/12/29 05:52:59;;;;;;;6.50;3.95;;;;;;;;;;5058404;28;20713;-77
2020/12/29 05:55:26;;;;;;;4.88;3.58;;;;;;;;;;5066985;28;20263;-76
2020/12/29 05:58:08;;;;;;;4.30;3.85;;;;;;;;;;5070903;28;20712;-76
2020/12/29 06:00:36;;;;;;;4.97;4.18;;;;;;;;;;5069398;28;20199;-76
2020/12/29 06:03:03;;;;;;;5.60;4.10;;;;;;;;;;5051396;28;20222;-77
2020/12/29 06:05:32;;;;;;;5.43;3.90;;;;;;;;;;5060074;28;20206;-77
2020/12/29 06:07:59;;;;;;;4.38;3.67;;;;;;;;;;5072833;28;20315;-76
2020/12/29 06:10:27;;;;;;;4.95;4.00;;;;;;;;;;5072619;28;20290;-76
2020/12/29 06:12:54;;;;;;;8.60;4.40;;;;;;;;;;5070599;28;20285;-77
2020/12/29 06:15:23;;;;;;;8.15;3.95;;;;;;;;;;5070501;28;20220;-76
2020/12/29 06:17:54;;;;;;;6.50;4.85;;;;;;;;;;5066883;28;20186;-76
2020/12/29 06:20:21;;;;;;;7.82;4.35;;;;;;;;;;5069824;28;20260;-78
2020/12/29 06:22:51;;;;;;;6.65;4.80;;;;;;;;;;5070006;28;20195;-77
2020/12/29 06:25:18;;;;;;;8.60;4.47;;;;;;;;;;5070586;28;20288;-75
2020/12/29 06:27:51;;;;;;;5.15;3.75;;;;;;;;;;5069221;28;20240;-76
2020/12/29 06:30:19;;;;;;;5.70;4.32;;;;;;;;;;5071951;28;20194;-76
2020/12/29 06:32:48;;;;;;;9.35;4.78;;;;;;;;;;5070104;28;20228;-76
2020/12/29 06:35:15;;;;;;;7.05;4.78;;;;;;;;;;5070900;28;20195;-76
2020/12/29 06:37:44;;;;;;;7.60;5.20;;;;;;;;;;5070446;28;20246;-75
2020/12/29 06:40:12;;;;;;;11.38;5.13;;;;;;;;;;5066779;28;20189;-76
2020/12/29 06:42:40;;;;;;;8.23;4.70;;;;;;;;;;5068372;28;20208;-76
2020/12/29 06:45:08;;;;;;;6.95;5.65;;;;;;;;;;5069861;28;20247;-76
2020/12/29 06:47:37;;;;;;;9.80;5.25;;;;;;;;;;5070214;28;20233;-77
2020/12/29 06:50:20;;;;;;;7.93;5.78;;;;;;;;;;5066260;28;20268;-75
2020/12/29 06:52:53;;;;;;;10.85;5.35;;;;;;;;;;5054797;28;20237;-76
2020/12/29 06:55:21;;;;;;;8.43;5.60;;;;;;;;;;5064005;28;20210;-77
2020/12/29 06:57:48;;;;;;;11.35;6.78;;;;;;;;;;5059915;28;20194;-77
2020/12/29 07:00:17;;;;;;;9.98;5.55;;;;;;;;;;5050370;28;20285;-77
2020/12/29 07:02:46;;;;;;;11.95;5.65;;;;;;;;;;5049210;28;20205;-77
2020/12/29 07:05:13;;;;;;;6.10;5.40;;;;;;;;;;5051903;28;20461;-76
2020/12/29 07:07:46;;;;;;;7.68;5.00;;;;;;;;;;5052967;28;20227;-76
2020/12/29 07:10:13;;;;;;;8.05;5.07;;;;;;;;;;5050033;28;20308;-76
2020/12/29 07:12:45;;;;;;;7.40;4.80;;;;;;;;;;5051198;28;20251;-75
2020/12/29 07:15:16;;;;;;;15.02;5.70;;;;;;;;;;5051314;28;20248;-75
2020/12/29 07:17:53;;;;;;;9.65;5.60;;;;;;;;;;5062824;28;20282;-76
2020/12/29 07:20:22;;;;;;;7.75;4.93;;;;;;;;;;5065998;28;20193;-76
2020/12/29 07:22:54;;;;;;;11.98;6.53;;;;;;;;;;5053626;28;20190;-75
2020/12/29 07:25:21;;;;;;;10.60;6.15;;;;;;;;;;5049668;28;20244;-76
2020/12/29 07:27:50;;;;;;;12.55;7.22;;;;;;;;;;5049580;28;20744;-76
2020/12/29 07:30:16;;;;;;;11.57;6.72;;;;;;;;;;5050745;28;20269;-75
2020/12/29 07:32:43;;;;;;;8.32;6.35;;;;;;;;;;5051565;28;20202;-76
2020/12/29 07:35:11;;;;;;;10.43;6.45;;;;;;;;;;5057222;28;20193;-76
2020/12/29 07:37:38;;;;;;;8.32;5.25;;;;;;;;;;5053724;28;20240;-76
2020/12/29 07:40:04;;;;;;;6.93;5.35;;;;;;;;;;5060851;28;20273;-75
2020/12/29 07:42:31;;;;;;;12.30;5.03;;;;;;;;;;5066253;28;20193;-75
2020/12/29 07:44:59;;;;;;;7.47;5.40;;;;;;;;;;5068490;28;20210;-76
2020/12/29 07:47:26;;;;;;;6.00;4.80;;;;;;;;;;5066855;28;20226;-74
2020/12/29 07:49:53;;;;;;;6.18;4.50;;;;;;;;;;5049300;28;20195;-77
2020/12/29 07:52:23;;;;;;;6.05;4.70;;;;;;;;;;5060240;28;20213;-76
2020/12/29 07:55:02;;;;;;;5.10;4.25;;;;;;;;;;5069580;28;20755;-76
2020/12/29 07:57:29;;;;;;;6.47;5.13;;;;;;;;;;5051686;28;20195;-76
2020/12/29 08:00:05;;;;;;;9.55;4.45;;;;;;;;;;5050750;28;20203;-76
2020/12/29 08:02:32;;;;;;;7.55;5.15;;;;;;;;;;5057541;28;20712;-76
2020/12/29 08:05:00;;;;;;;4.90;4.25;;;;;;;;;;5065146;28;20606;-76
2020/12/29 08:07:27;;;;;;;8.43;5.20;;;;;;;;;;5054142;28;20222;-78
2020/12/29 08:09:54;;;;;;;11.85;5.80;;;;;;;;;;5047736;28;20667;-80
2020/12/29 08:12:21;;;;;;;10.40;6.38;;;;;;;;;;5055025;28;20186;-82
2020/12/29 08:14:48;;;;;;;11.52;5.82;;;;;;;;;;5062411;28;20302;-82
2020/12/29 08:17:15;;;;;;;7.68;5.40;;;;;;;;;;5056903;28;20282;-77
2020/12/29 08:19:42;;;;;;;17.10;10.02;;;;;;;;;;5072360;28;20284;-76
2020/12/29 08:22:10;;;;;;;22.08;12.27;;;;;;;;;;5059872;28;20277;-76
2020/12/29 08:24:37;;;;;;;19.02;10.45;;;;;;;;;;5060165;28;20611;-77
2020/12/29 08:27:04;;;;;;;14.82;8.82;;;;;;;;;;5066293;28;20217;-76
2020/12/29 08:29:32;;;;;;;13.95;6.20;;;;;;;;;;5070949;28;20200;-75
2020/12/29 08:32:07;;;;;;;7.05;4.85;;;;;;;;;;5063530;28;20187;-75
2020/12/29 08:34:35;;;;;;;5.13;4.50;;;;;;;;;;5051107;28;20305;-76
2020/12/29 08:37:02;;;;;;;5.53;4.32;;;;;;;;;;5053706;28;20210;-75
2020/12/29 08:39:33;;;;;;;6.05;4.50;;;;;;;;;;5060520;28;20234;-75
2020/12/29 08:42:02;;;;;;;6.05;3.55;;;;;;;;;;5054112;28;20205;-75
2020/12/29 08:44:31;;;;;;;7.25;5.03;;;;;;;;;;5058283;28;20613;-75
2020/12/29 08:46:58;;;;;;;6.15;3.95;;;;;;;;;;5073867;28;20234;-76
2020/12/29 08:49:29;;;;;;;4.40;3.40;;;;;;;;;;5065946;28;20201;-76
2020/12/29 08:51:57;;;;;;;6.82;4.32;;;;;;;;;;5068876;28;20194;-75
2020/12/29 08:54:24;;;;;;;6.32;4.25;;;;;;;;;;5062949;28;20221;-76
2020/12/29 08:57:00;;;;;;;5.22;3.88;;;;;;;;;;5051795;28;20204;-75
2020/12/29 08:59:27;;;;;;;5.22;3.90;;;;;;;;;;5051701;28;20727;-75
2020/12/29 09:01:56;;;;;;;5.72;4.63;;;;;;;;;;5058128;28;20224;-75
2020/12/29 09:04:23;;;;;;;5.65;3.97;;;;;;;;;;5068236;28;20229;-74
2020/12/29 09:07:05;;;;;;;5.50;4.35;;;;;;;;;;5071155;28;20229;-77
2020/12/29 09:09:34;;;;;;;13.10;5.22;;;;;;;;;;5058595;28;20198;-75
2020/12/29 09:12:08;;;;;;;6.72;4.63;;;;;;;;;;5052368;28;20198;-75
2020/12/29 09:14:35;;;;;;;8.88;4.03;;;;;;;;;;5053034;28;20278;-75
2020/12/29 09:17:03;;;;;;;6.75;4.45;;;;;;;;;;5054406;28;20193;-74
2020/12/29 09:19:30;;;;;;;6.28;4.13;;;;;;;;;;5070446;28;20286;-75
2020/12/29 09:22:04;;;;;;;4.30;3.90;;;;;;;;;;5073923;28;20245;-74
2020/12/29 09:24:31;;;;;;;5.47;4.45;;;;;;;;;;5071528;28;20210;-75
2020/12/29 09:26:58;;;;;;;9.60;4.40;;;;;;;;;;5067581;28;20577;-75
2020/12/29 09:29:25;;;;;;;5.75;4.20;;;;;;;;;;5066331;28;20596;-74
2020/12/29 09:31:53;;;;;;;7.38;4.40;;;;;;;;;;5051796;28;20195;-75
2020/12/29 09:34:20;;;;;;;7.75;4.30;;;;;;;;;;5051650;28;20219;-75
2020/12/29 09:36:47;;;;;;;9.07;5.05;;;;;;;;;;5052077;28;20225;-74
2020/12/29 09:39:14;;;;;;;5.55;3.97;;;;;;;;;;5052171;28;20198;-75
2020/12/29 09:41:40;;;;;;;5.82;3.80;;;;;;;;;;5073071;28;20259;-76
2020/12/29 09:44:08;;;;;;;9.25;4.88;;;;;;;;;;5072502;28;20297;-76
2020/12/29 09:46:36;;;;;;;6.30;4.80;;;;;;;;;;5072153;28;20191;-76
2020/12/29 09:49:03;;;;;;;5.00;4.30;;;;;;;;;;5067221;28;20255;-75
2020/12/29 09:51:29;;;;;;;7.40;5.47;;;;;;;;;;5069247;28;20194;-75
2020/12/29 09:53:56;;;;;;;7.97;5.22;;;;;;;;;;5070882;28;20316;-75
2020/12/29 09:56:23;;;;;;;6.13;4.90;;;;;;;;;;5070966;28;20706;-76
2020/12/29 09:58:50;;;;;;;7.82;5.85;;;;;;;;;;5071993;28;20249;-75
2020/12/29 10:01:18;;;;;;;6.82;4.72;;;;;;;;;;5061128;28;20607;-75
2020/12/29 10:03:45;;;;;;;6.50;4.53;;;;;;;;;;5052681;28;20568;-75
2020/12/29 10:06:11;;;;;;;9.73;4.85;;;;;;;;;;5052736;28;20217;-75
2020/12/29 10:08:38;;;;;;;7.47;4.30;;;;;;;;;;5052583;28;20591;-75
2020/12/29 10:11:05;;;;;;;5.85;4.35;;;;;;;;;;5063863;28;20217;-75
2020/12/29 10:13:32;;;;;;;7.13;4.47;;;;;;;;;;5067293;28;20222;-74
2020/12/29 10:15:59;;;;;;;7.10;4.38;;;;;;;;;;5071075;28;20198;-76
2020/12/29 10:18:26;;;;;;;5.50;4.90;;;;;;;;;;5069672;28;20198;-76
2020/12/29 10:20:53;;;;;;;6.75;4.75;;;;;;;;;;5069532;28;20217;-76
2020/12/29 10:23:20;;;;;;;4.55;4.00;;;;;;;;;;5051486;28;20333;-75
2020/12/29 10:25:47;;;;;;;5.93;4.53;;;;;;;;;;5053470;28;20201;-75
2020/12/29 10:28:14;;;;;;;5.60;4.93;;;;;;;;;;5071156;28;20308;-76
2020/12/29 10:30:41;;;;;;;7.05;4.97;;;;;;;;;;5072350;28;20191;-75
2020/12/29 10:33:08;;;;;;;6.70;4.95;;;;;;;;;;5067806;28;20309;-76
2020/12/29 10:35:36;;;;;;;10.55;5.28;;;;;;;;;;5065702;28;20194;-76
2020/12/29 10:38:03;;;;;;;7.50;5.60;;;;;;;;;;5053236;28;20728;-75
2020/12/29 10:40:30;;;;;;;14.95;6.10;;;;;;;;;;5050294;28;20199;-76
2020/12/29 10:42:57;;;;;;;8.60;5.55;;;;;;;;;;5060265;28;20283;-74
2020/12/29 10:45:24;;;;;;;7.93;5.68;;;;;;;;;;5063265;28;20281;-77
2020/12/29 10:47:51;;;;;;;8.23;6.15;;;;;;;;;;5063332;28;20614;-76
2020/12/29 10:50:17;;;;;;;10.35;5.90;;;;;;;;;;5066624;28;20639;-76
2020/12/29 10:52:45;;;;;;;9.77;6.90;;;;;;;;;;5063099;28;20227;-76
2020/12/29 10:55:11;;;;;;;7.80;5.90;;;;;;;;;;5049174;28;20866;-76
2020/12/29 10:57:38;;;;;;;6.32;5.50;;;;;;;;;;5049915;28;20199;-76
2020/12/29 11:00:05;;;;;;;8.77;5.90;;;;;;;;;;5060610;28;20843;-75
2020/12/29 11:02:32;;;;;;;8.77;6.15;;;;;;;;;;5065523;28;20246;-74
2020/12/29 11:04:59;;;;;;;6.07;5.00;;;;;;;;;;5062036;28;20293;-76
2020/12/29 11:07:25;;;;;;;15.02;6.05;;;;;;;;;;5049932;28;20279;-75
2020/12/29 11:09:53;;;;;;;8.00;5.95;;;;;;;;;;5049648;28;20195;-76
2020/12/29 11:12:20;;;;;;;9.68;6.50;;;;;;;;;;5052028;28;20281;-76
2020/12/29 11:14:47;;;;;;;7.65;6.50;;;;;;;;;;5052529;28;20234;-76
2020/12/29 11:17:13;;;;;;;9.95;6.43;;;;;;;;;;5051530;28;20205;-75
2020/12/29 11:19:40;;;;;;;6.95;5.53;;;;;;;;;;5051300;28;20656;-77
2020/12/29 11:22:07;;;;;;;9.40;7.28;;;;;;;;;;5051363;28;20201;-76
2020/12/29 11:24:34;;;;;;;9.02;6.50;;;;;;;;;;5063695;28;20231;-76
2020/12/29 11:27:01;;;;;;;8.35;6.28;;;;;;;;;;5066471;28;20692;-77
2020/12/29 11:29:28;;;;;;;10.35;6.10;;;;;;;;;;5069917;28;20556;-76
2020/12/29 11:31:55;;;;;;;10.27;7.25;;;;;;;;;;5056024;28;20591;-76
2020/12/29 11:34:22;;;;;;;10.07;7.57;;;;;;;;;;5062692;28;20332;-76
2020/12/29 11:36:50;;;;;;;13.02;7.28;;;;;;;;;;5052786;28;20200;-77
2020/12/29 11:39:17;;;;;;;12.00;6.97;;;;;;;;;;5059412;28;20244;-77
2020/12/29 11:41:44;;;;;;;10.00;7.88;;;;;;;;;;5051215;28;20285;-76
2020/12/29 11:44:11;;;;;;;11.60;8.25;;;;;;;;;;5068547;28;20206;-77
2020/12/29 11:46:39;;;;;;;9.50;7.22;;;;;;;;;;5067772;28;20554;-77
2020/12/29 11:49:05;;;;;;;8.68;7.18;;;;;;;;;;5066180;28;20281;-75
2020/12/29 11:51:32;;;;;;;10.30;6.93;;;;;;;;;;5073300;28;20197;-76
2020/12/29 11:53:59;;;;;;;9.18;7.63;;;;;;;;;;5073058;28;20224;-77
2020/12/29 11:56:26;;;;;;;8.68;6.43;;;;;;;;;;5055114;28;20198;-76
2020/12/29 11:58:52;;;;;;;10.05;6.28;;;;;;;;;;5053865;28;20209;-75
2020/12/29 12:01:20;;;;;;;11.45;6.85;;;;;;;;;;5055049;28;20251;-75
2020/12/29 12:03:47;;;;;;;8.68;6.03;;;;;;;;;;5054833;28;20218;-75
2020/12/29 12:06:14;;;;;;;8.80;7.32;;;;;;;;;;5068075;28;20303;-76
2020/12/29 12:08:41;;;;;;;10.50;7.45;;;;;;;;;;5072662;28;20220;-75
2020/12/29 12:11:07;;;;;;;9.45;7.10;;;;;;;;;;5069249;28;20251;-76
2020/12/29 12:13:34;;;;;;;9.70;6.50;;;;;;;;;;5072202;28;20293;-74
2020/12/29 12:16:01;;;;;;;9.07;5.90;;;;;;;;;;5065586;28;20523;-75
2020/12/29 12:18:28;;;;;;;7.22;6.50;;;;;;;;;;5053773;28;20279;-76
2020/12/29 12:20:55;;;;;;;6.95;5.35;;;;;;;;;;5064569;28;20297;-77
2020/12/29 12:23:22;;;;;;;8.85;6.05;;;;;;;;;;5071004;28;20236;-77
2020/12/29 12:25:49;;;;;;;9.50;5.97;;;;;;;;;;5067832;28;20268;-76
2020/12/29 12:28:19;;;;;;;7.00;4.70;;;;;;;;;;5072645;28;20225;-79
2020/12/29 12:30:45;;;;;;;7.38;5.28;;;;;;;;;;5072212;28;20202;-79
2020/12/29 12:33:12;;;;;;;7.65;5.35;;;;;;;;;;5072662;28;20223;-79
2020/12/29 12:35:40;;;;;;;6.25;4.53;;;;;;;;;;5063650;28;20293;-77
2020/12/29 12:38:07;;;;;;;6.90;4.80;;;;;;;;;;5053983;28;20197;-76
2020/12/29 12:40:33;;;;;;;7.63;5.13;;;;;;;;;;5054314;28;20289;-74
2020/12/29 12:43:00;;;;;;;6.93;4.88;;;;;;;;;;5053878;28;20217;-76
2020/12/29 12:45:27;;;;;;;8.40;6.28;;;;;;;;;;5056677;28;20703;-77
2020/12/29 12:47:54;;;;;;;5.95;4.95;;;;;;;;;;5067662;28;20232;-77
2020/12/29 12:50:21;;;;;;;5.30;4.47;;;;;;;;;;5071273;28;20197;-76
2020/12/29 12:52:49;;;;;;;7.65;4.40;;;;;;;;;;5072113;28;20603;-76
2020/12/29 12:55:16;;;;;;;4.90;4.20;;;;;;;;;;5070505;28;20608;-75
2020/12/29 12:57:43;;;;;;;7.25;4.05;;;;;;;;;;5070204;28;20667;-75
2020/12/29 13:00:10;;;;;;;4.53;3.80;;;;;;;;;;5071209;28;20201;-76
2020/12/29 13:02:37;;;;;;;5.57;4.35;;;;;;;;;;5071244;28;20197;-76
2020/12/29 13:05:03;;;;;;;5.00;4.10;;;;;;;;;;5070653;28;20194;-77
2020/12/29 13:07:30;;;;;;;5.45;3.53;;;;;;;;;;5055042;28;20606;-76
2020/12/29 13:09:58;;;;;;;6.75;4.00;;;;;;;;;;5064361;28;20191;-77
2020/12/29 13:12:25;;;;;;;4.82;3.45;;;;;;;;;;5065540;28;20198;-76
2020/12/29 13:14:52;;;;;;;4.50;3.45;;;;;;;;;;5052013;28;20684;-76
2020/12/29 13:17:19;;;;;;;5.78;3.75;;;;;;;;;;5049246;28;20599;-77
2020/12/29 13:19:46;;;;;;;5.90;3.90;;;;;;;;;;5069156;28;20186;-77
2020/12/29 13:22:13;;;;;;;5.47;4.53;;;;;;;;;;5054463;28;20232;-75
2020/12/29 13:24:39;;;;;;;4.70;3.90;;;;;;;;;;5058207;28;20263;-76
2020/12/29 13:27:07;;;;;;;5.07;3.80;;;;;;;;;;5072162;28;20214;-75
2020/12/29 13:29:34;;;;;;;5.75;3.90;;;;;;;;;;5071713;28;20287;-76
2020/12/29 13:32:01;;;;;;;4.78;3.80;;;;;;;;;;5067144;28;20289;-77
2020/12/29 13:34:29;;;;;;;6.38;4.15;;;;;;;;;;5066652;28;20210;-77
2020/12/29 13:36:56;;;;;;;10.45;5.10;;;;;;;;;;5069516;28;20216;-75
2020/12/29 13:39:22;;;;;;;11.82;5.55;;;;;;;;;;5069790;28;20220;-75
2020/12/29 13:41:49;;;;;;;6.53;4.75;;;;;;;;;;5070694;28;20198;-77
2020/12/29 13:44:17;;;;;;;7.28;4.07;;;;;;;;;;5066207;28;20229;-76
2020/12/29 13:46:44;;;;;;;6.05;4.15;;;;;;;;;;5072032;28;20200;-76
2020/12/29 13:49:10;;;;;;;6.45;4.40;;;;;;;;;;5072234;28;20212;-75
2020/12/29 13:51:37;;;;;;;4.45;4.05;;;;;;;;;;5072091;28;20605;-78
2020/12/29 13:54:04;;;;;;;11.90;4.50;;;;;;;;;;5063959;28;20289;-77
2020/12/29 13:56:33;;;;;;;6.90;4.40;;;;;;;;;;5037360;28;827819;-76
2020/12/29 13:58:59;;;;;;;6.10;4.20;;;;;;;;;;5069380;28;20799;-75
2020/12/29 14:01:27;;;;;;;7.68;4.65;;;;;;;;;;5071391;28;20190;-76
2020/12/29 14:03:54;;;;;;;8.65;4.78;;;;;;;;;;5063741;28;20289;-75
2020/12/29 14:06:21;;;;;;;6.05;3.88;;;;;;;;;;5067833;28;20202;-77
2020/12/29 14:08:48;;;;;;;6.15;4.60;;;;;;;;;;5052385;28;20218;-76
2020/12/29 14:11:16;;;;;;;6.85;4.70;;;;;;;;;;5052955;28;20608;-76
2020/12/29 14:13:43;;;;;;;6.50;4.20;;;;;;;;;;5053104;28;20247;-73
2020/12/29 14:16:10;;;;;;;6.55;4.97;;;;;;;;;;5072858;28;20194;-75
2020/12/29 14:18:37;;;;;;;8.27;5.13;;;;;;;;;;5066924;28;20223;-75
2020/12/29 14:21:04;;;;;;;7.05;4.60;;;;;;;;;;5067978;28;20259;-76
2020/12/29 14:23:31;;;;;;;7.57;4.65;;;;;;;;;;5070494;28;20248;-76
2020/12/29 14:25:58;;;;;;;10.15;5.43;;;;;;;;;;5053776;28;20200;-76
2020/12/29 14:28:25;;;;;;;9.30;5.15;;;;;;;;;;5047907;28;20687;-76
2020/12/29 14:30:52;;;;;;;7.28;5.22;;;;;;;;;;5045589;28;20205;-75
2020/12/29 14:33:21;;;;;;;5.88;4.60;;;;;;;;;;5052148;28;20237;-75
2020/12/29 14:35:49;;;;;;;6.03;4.22;;;;;;;;;;5064103;28;20194;-77
2020/12/29 14:38:15;;;;;;;10.25;5.20;;;;;;;;;;5072021;28;20208;-76
2020/12/29 14:40:42;;;;;;;6.57;4.90;;;;;;;;;;5067491;28;20255;-76
2020/12/29 14:43:09;;;;;;;7.05;4.63;;;;;;;;;;5065253;28;20221;-76